Time,TemperatureF,DewpointF,PressureIn,WindDirection,WindDirectionDegrees,WindSpeedMPH,WindSpeedGustMPH,Humidity,HourlyPrecipIn,Conditions,Clouds,dailyrainin,SolarRadiationWatts/m^2,SoftwareType,DateUTC
2013-02-02 00:00:00,45.0,38.0,30.22,NNE,19,4.0,-999.0,76,0.00,,,-99.99,-1.300000,,2013-02-02 08:00:00,
2013-02-02 00:21:00,45.0,38.0,30.22,NNE,19,4.0,-999.0,76,0.00,,,-99.99,-1.300000,,2013-02-02 08:21:00,
2013-02-02 00:32:00,45.0,38.0,30.22,NNE,19,4.0,-999.0,76,0.00,,,-99.99,-1.300000,,2013-02-02 08:32:00,
2013-02-02 00:42:00,45.0,38.0,30.22,NNE,19,4.0,-999.0,76,0.00,,,-99.99,-1.300000,,2013-02-02 08:42:00,
2013-02-02 00:53:00,45.0,38.0,30.22,NNE,19,4.0,-999.0,76,0.00,,,-99.99,-1.300000,,2013-02-02 08:53:00,
2013-02-02 01:00:00,46.0,37.0,30.23,North,7,3.0,-999.0,68,0.00,,,-99.99,-1.900000,,2013-02-02 09:00:00,
2013-02-02 01:22:00,46.0,37.0,30.23,North,7,3.0,-999.0,68,0.00,,,-99.99,-1.900000,,2013-02-02 09:22:00,
2013-02-02 01:32:00,46.0,37.0,30.23,North,7,3.0,-999.0,68,0.00,,,-99.99,-1.900000,,2013-02-02 09:32:00,
2013-02-02 01:42:00,46.0,37.0,30.23,North,7,3.0,-999.0,68,0.00,,,-99.99,-1.900000,,2013-02-02 09:42:00,
2013-02-02 01:52:00,46.0,37.0,30.23,North,7,3.0,-999.0,68,0.00,,,-99.99,-1.900000,,2013-02-02 09:52:00,
2013-02-02 02:00:00,45.0,36.0,30.23,WNW,287,1.0,-999.0,70,0.00,,,-99.99,-2.300000,,2013-02-02 10:00:00,
2013-02-02 02:21:00,45.0,36.0,30.23,WNW,287,1.0,-999.0,70,0.00,,,-99.99,-2.300000,,2013-02-02 10:21:00,
2013-02-02 02:32:00,45.0,36.0,30.23,WNW,287,1.0,-999.0,70,0.00,,,-99.99,-2.300000,,2013-02-02 10:32:00,
2013-02-02 02:42:00,45.0,36.0,30.23,WNW,287,1.0,-999.0,70,0.00,,,-99.99,-2.300000,,2013-02-02 10:42:00,
2013-02-02 02:52:00,45.0,36.0,30.23,WNW,287,1.0,-999.0,70,0.00,,,-99.99,-2.300000,,2013-02-02 10:52:00,
2013-02-02 03:00:00,42.0,36.0,30.23,West,272,1.0,-999.0,79,0.00,,,-99.99,-2.400000,,2013-02-02 11:00:00,
2013-02-02 03:22:00,42.0,36.0,30.23,West,272,1.0,-999.0,79,0.00,,,-99.99,-2.400000,,2013-02-02 11:22:00,
2013-02-02 03:32:00,42.0,36.0,30.23,West,272,1.0,-999.0,79,0.00,,,-99.99,-2.400000,,2013-02-02 11:32:00,
2013-02-02 03:42:00,42.0,36.0,30.23,West,272,1.0,-999.0,79,0.00,,,-99.99,-2.400000,,2013-02-02 11:42:00,
2013-02-02 03:52:00,42.0,36.0,30.23,West,272,1.0,-999.0,79,0.00,,,-99.99,-2.400000,,2013-02-02 11:52:00,
2013-02-02 04:00:00,40.0,35.0,30.22,NNE,25,1.0,-999.0,81,0.00,,,-99.99,-1.700000,,2013-02-02 12:00:00,
2013-02-02 04:22:00,40.0,35.0,30.22,NNE,25,1.0,-999.0,81,0.00,,,-99.99,-1.700000,,2013-02-02 12:22:00,
2013-02-02 04:32:00,40.0,35.0,30.22,NNE,25,1.0,-999.0,81,0.00,,,-99.99,-1.700000,,2013-02-02 12:32:00,
2013-02-02 04:42:00,40.0,35.0,30.22,NNE,25,1.0,-999.0,81,0.00,,,-99.99,-1.700000,,2013-02-02 12:42:00,
2013-02-02 04:52:00,40.0,35.0,30.22,NNE,25,1.0,-999.0,81,0.00,,,-99.99,-1.700000,,2013-02-02 12:52:00,
2013-02-02 05:00:00,44.0,34.0,30.22,North,2,2.0,-999.0,68,0.00,,,-99.99,-0.800000,,2013-02-02 13:00:00,
2013-02-02 05:22:00,44.0,34.0,30.22,North,2,2.0,-999.0,68,0.00,,,-99.99,-0.800000,,2013-02-02 13:22:00,
2013-02-02 05:33:00,44.0,34.0,30.22,North,2,2.0,-999.0,68,0.00,,,-99.99,-0.800000,,2013-02-02 13:33:00,
2013-02-02 05:42:00,44.0,34.0,30.22,North,2,2.0,-999.0,68,0.00,,,-99.99,-0.800000,,2013-02-02 13:42:00,
2013-02-02 05:52:00,44.0,34.0,30.22,North,2,2.0,-999.0,68,0.00,,,-99.99,-0.800000,,2013-02-02 13:52:00,
2013-02-02 06:00:00,45.0,34.0,30.21,NNW,338,3.0,-999.0,66,0.00,,,-99.99,-1.500000,,2013-02-02 14:00:00,
2013-02-02 06:22:00,45.0,34.0,30.21,NNW,338,3.0,-999.0,66,0.00,,,-99.99,-1.500000,,2013-02-02 14:22:00,
2013-02-02 06:33:00,45.0,34.0,30.21,NNW,338,3.0,-999.0,66,0.00,,,-99.99,-1.500000,,2013-02-02 14:33:00,
2013-02-02 06:42:00,45.0,34.0,30.21,NNW,338,3.0,-999.0,66,0.00,,,-99.99,-1.500000,,2013-02-02 14:42:00,
2013-02-02 06:52:00,45.0,34.0,30.21,NNW,338,3.0,-999.0,66,0.00,,,-99.99,-1.500000,,2013-02-02 14:52:00,
2013-02-02 07:00:00,38.0,34.0,30.23,North,0,0.0,-999.0,87,0.00,,,-99.99,-2.600000,,2013-02-02 15:00:00,
2013-02-02 07:22:00,38.0,34.0,30.23,North,0,0.0,-999.0,87,0.00,,,-99.99,-2.600000,,2013-02-02 15:22:00,
2013-02-02 07:33:00,38.0,34.0,30.23,North,0,0.0,-999.0,87,0.00,,,-99.99,-2.600000,,2013-02-02 15:33:00,
2013-02-02 07:42:00,38.0,34.0,30.23,North,0,0.0,-999.0,87,0.00,,,-99.99,-2.600000,,2013-02-02 15:42:00,
2013-02-02 07:52:00,38.0,34.0,30.23,North,0,0.0,-999.0,87,0.00,,,-99.99,-2.600000,,2013-02-02 15:52:00,
2013-02-02 08:00:00,46.0,35.0,30.25,NNE,28,4.0,-999.0,64,0.00,,,-99.99,13.800000,,2013-02-02 16:00:00,
2013-02-02 08:23:00,46.0,35.0,30.25,NNE,28,4.0,-999.0,64,0.00,,,-99.99,13.800000,,2013-02-02 16:23:00,
2013-02-02 08:32:00,46.0,35.0,30.25,NNE,28,4.0,-999.0,64,0.00,,,-99.99,13.800000,,2013-02-02 16:32:00,
2013-02-02 08:42:00,46.0,35.0,30.25,NNE,28,4.0,-999.0,64,0.00,,,-99.99,13.800000,,2013-02-02 16:42:00,
2013-02-02 08:52:00,46.0,35.0,30.25,NNE,28,4.0,-999.0,64,0.00,,,-99.99,13.800000,,2013-02-02 16:52:00,
2013-02-02 10:00:00,51.0,36.0,30.27,North,6,3.0,-999.0,56,0.00,,,-99.99,180.399994,,2013-02-02 18:00:00,
2013-02-02 10:22:00,51.0,36.0,30.27,North,6,3.0,-999.0,56,0.00,,,-99.99,180.399994,,2013-02-02 18:22:00,
2013-02-02 10:32:00,51.0,36.0,30.27,North,6,3.0,-999.0,56,0.00,,,-99.99,180.399994,,2013-02-02 18:32:00,
2013-02-02 10:42:00,51.0,36.0,30.27,North,6,3.0,-999.0,56,0.00,,,-99.99,180.399994,,2013-02-02 18:42:00,
2013-02-02 10:52:00,51.0,36.0,30.27,North,6,3.0,-999.0,56,0.00,,,-99.99,180.399994,,2013-02-02 18:52:00,
2013-02-02 11:00:00,54.0,37.0,30.28,NNE,13,5.0,-999.0,51,0.00,,,-99.99,273.600006,,2013-02-02 19:00:00,
2013-02-02 11:22:00,54.0,37.0,30.28,NNE,13,5.0,-999.0,51,0.00,,,-99.99,273.600006,,2013-02-02 19:22:00,
2013-02-02 11:32:00,54.0,37.0,30.28,NNE,13,5.0,-999.0,51,0.00,,,-99.99,273.600006,,2013-02-02 19:32:00,
2013-02-02 11:42:00,54.0,37.0,30.28,NNE,13,5.0,-999.0,51,0.00,,,-99.99,273.600006,,2013-02-02 19:42:00,
2013-02-02 11:52:00,54.0,37.0,30.28,NNE,13,5.0,-999.0,51,0.00,,,-99.99,273.600006,,2013-02-02 19:52:00,
2013-02-02 12:00:00,61.0,35.0,30.27,WNW,293,1.0,-999.0,38,0.00,,,-99.99,380.399994,,2013-02-02 20:00:00,
2013-02-02 12:22:00,61.0,35.0,30.27,WNW,293,1.0,-999.0,38,0.00,,,-99.99,380.399994,,2013-02-02 20:22:00,
2013-02-02 12:32:00,61.0,35.0,30.27,WNW,293,1.0,-999.0,38,0.00,,,-99.99,380.399994,,2013-02-02 20:32:00,
2013-02-02 12:42:00,61.0,35.0,30.27,WNW,293,1.0,-999.0,38,0.00,,,-99.99,380.399994,,2013-02-02 20:42:00,
2013-02-02 12:52:00,61.0,35.0,30.27,WNW,293,1.0,-999.0,38,0.00,,,-99.99,380.399994,,2013-02-02 20:52:00,
2013-02-02 14:00:00,64.0,35.0,30.23,NW,321,2.0,-999.0,34,0.00,,,-99.99,366.000000,,2013-02-02 22:00:00,
2013-02-02 14:22:00,64.0,35.0,30.23,NW,321,2.0,-999.0,34,0.00,,,-99.99,366.000000,,2013-02-02 22:22:00,
2013-02-02 14:32:00,64.0,35.0,30.23,NW,321,2.0,-999.0,34,0.00,,,-99.99,366.000000,,2013-02-02 22:32:00,
2013-02-02 14:42:00,64.0,35.0,30.23,NW,321,2.0,-999.0,34,0.00,,,-99.99,366.000000,,2013-02-02 22:42:00,
2013-02-02 14:52:00,64.0,35.0,30.23,NW,321,2.0,-999.0,34,0.00,,,-99.99,366.000000,,2013-02-02 22:52:00,
2013-02-02 15:00:00,64.0,36.0,30.22,WNW,293,1.0,-999.0,35,0.00,,,-99.99,319.700012,,2013-02-02 23:00:00,
2013-02-02 15:22:00,64.0,36.0,30.22,WNW,293,1.0,-999.0,35,0.00,,,-99.99,319.700012,,2013-02-02 23:22:00,
2013-02-02 15:32:00,64.0,36.0,30.22,WNW,293,1.0,-999.0,35,0.00,,,-99.99,319.700012,,2013-02-02 23:32:00,
2013-02-02 15:42:00,64.0,36.0,30.22,WNW,293,1.0,-999.0,35,0.00,,,-99.99,319.700012,,2013-02-02 23:42:00,
2013-02-02 15:52:00,64.0,36.0,30.22,WNW,293,1.0,-999.0,35,0.00,,,-99.99,319.700012,,2013-02-02 23:52:00,
2013-02-02 16:00:00,61.0,38.0,30.21,SW,219,1.0,-999.0,42,0.00,,,-99.99,113.699997,,2013-02-03 00:00:00,
2013-02-02 16:22:00,61.0,38.0,30.21,SW,219,1.0,-999.0,42,0.00,,,-99.99,113.699997,,2013-02-03 00:22:00,
2013-02-02 16:32:00,61.0,38.0,30.21,SW,219,1.0,-999.0,42,0.00,,,-99.99,113.699997,,2013-02-03 00:32:00,
2013-02-02 16:42:00,61.0,38.0,30.21,SW,219,1.0,-999.0,42,0.00,,,-99.99,113.699997,,2013-02-03 00:42:00,
2013-02-02 16:52:00,61.0,38.0,30.21,SW,219,1.0,-999.0,42,0.00,,,-99.99,113.699997,,2013-02-03 00:52:00,
2013-02-02 17:00:00,55.0,42.0,30.21,South,191,0.0,-999.0,61,0.00,,,-99.99,39.299999,,2013-02-03 01:00:00,
2013-02-02 17:21:00,55.0,42.0,30.21,South,191,0.0,-999.0,61,0.00,,,-99.99,39.299999,,2013-02-03 01:21:00,
2013-02-02 17:32:00,55.0,42.0,30.21,South,191,0.0,-999.0,61,0.00,,,-99.99,39.299999,,2013-02-03 01:32:00,
2013-02-02 17:42:00,55.0,42.0,30.21,South,191,0.0,-999.0,61,0.00,,,-99.99,39.299999,,2013-02-03 01:42:00,
2013-02-02 17:52:00,55.0,42.0,30.21,South,191,0.0,-999.0,61,0.00,,,-99.99,39.299999,,2013-02-03 01:52:00,
2013-02-02 19:00:00,45.0,41.0,30.21,SW,222,0.0,-999.0,85,0.00,,,-99.99,-1.500000,,2013-02-03 03:00:00,
2013-02-02 19:22:00,45.0,41.0,30.21,SW,222,0.0,-999.0,85,0.00,,,-99.99,-1.500000,,2013-02-03 03:22:00,
2013-02-02 19:32:00,45.0,41.0,30.21,SW,222,0.0,-999.0,85,0.00,,,-99.99,-1.500000,,2013-02-03 03:32:00,
2013-02-02 19:42:00,45.0,41.0,30.21,SW,222,0.0,-999.0,85,0.00,,,-99.99,-1.500000,,2013-02-03 03:42:00,
2013-02-02 19:52:00,45.0,41.0,30.21,SW,222,0.0,-999.0,85,0.00,,,-99.99,-1.500000,,2013-02-03 03:52:00,
2013-02-02 20:00:00,42.0,40.0,30.21,WNW,284,0.0,-999.0,89,0.00,,,-99.99,-1.300000,,2013-02-03 04:00:00,
2013-02-02 20:22:00,42.0,40.0,30.21,WNW,284,0.0,-999.0,89,0.00,,,-99.99,-1.300000,,2013-02-03 04:22:00,
2013-02-02 20:32:00,42.0,40.0,30.21,WNW,284,0.0,-999.0,89,0.00,,,-99.99,-1.300000,,2013-02-03 04:32:00,
2013-02-02 20:42:00,42.0,40.0,30.21,WNW,284,0.0,-999.0,89,0.00,,,-99.99,-1.300000,,2013-02-03 04:42:00,
2013-02-02 20:52:00,42.0,40.0,30.21,WNW,284,0.0,-999.0,89,0.00,,,-99.99,-1.300000,,2013-02-03 04:52:00,
2013-02-02 21:00:00,42.0,38.0,30.21,WSW,240,0.0,-999.0,85,0.00,,,-99.99,-1.700000,,2013-02-03 05:00:00,
2013-02-02 21:22:00,42.0,38.0,30.21,WSW,240,0.0,-999.0,85,0.00,,,-99.99,-1.700000,,2013-02-03 05:22:00,
2013-02-02 21:32:00,42.0,38.0,30.21,WSW,240,0.0,-999.0,85,0.00,,,-99.99,-1.700000,,2013-02-03 05:32:00,
2013-02-02 21:42:00,42.0,38.0,30.21,WSW,240,0.0,-999.0,85,0.00,,,-99.99,-1.700000,,2013-02-03 05:42:00,
2013-02-02 21:52:00,42.0,38.0,30.21,WSW,240,0.0,-999.0,85,0.00,,,-99.99,-1.700000,,2013-02-03 05:52:00,
2013-02-02 22:00:00,47.0,37.0,30.20,NNE,14,3.0,-999.0,67,0.00,,,-99.99,-1.900000,,2013-02-03 06:00:00,
2013-02-02 22:21:00,47.0,37.0,30.20,NNE,14,3.0,-999.0,67,0.00,,,-99.99,-1.900000,,2013-02-03 06:21:00,
2013-02-02 22:32:00,47.0,37.0,30.20,NNE,14,3.0,-999.0,67,0.00,,,-99.99,-1.900000,,2013-02-03 06:32:00,
2013-02-02 22:42:00,47.0,37.0,30.20,NNE,14,3.0,-999.0,67,0.00,,,-99.99,-1.900000,,2013-02-03 06:42:00,
2013-02-02 22:52:00,47.0,37.0,30.20,NNE,14,3.0,-999.0,67,0.00,,,-99.99,-1.900000,,2013-02-03 06:52:00,
2013-02-02 23:00:00,46.0,36.0,30.20,North,6,3.0,-999.0,67,0.00,,,-99.99,-2.600000,,2013-02-03 07:00:00,
2013-02-02 23:21:00,46.0,36.0,30.20,North,6,3.0,-999.0,67,0.00,,,-99.99,-2.600000,,2013-02-03 07:21:00,
2013-02-02 23:32:00,46.0,36.0,30.20,North,6,3.0,-999.0,67,0.00,,,-99.99,-2.600000,,2013-02-03 07:32:00,
2013-02-02 23:42:00,46.0,36.0,30.20,North,6,3.0,-999.0,67,0.00,,,-99.99,-2.600000,,2013-02-03 07:42:00,
2013-02-02 23:52:00,46.0,36.0,30.20,North,6,3.0,-999.0,67,0.00,,,-99.99,-2.600000,,2013-02-03 07:52:00,